METAR Data
IDs: Format: Raw Decoded Include TAF

Data at: 2224 UTC 02 Aug 2021

EDQM 021750Z 00000KT 9999 VCSH FEW025 SCT059 13/12 Q1015